Time;durP1;ratioP1;P1;durP2;ratioP2;P2;SDS_P1;SDS_P2;PMS_P1;PMS_P2;Temp;Humidity;BMP_temperature;BMP_pressure;BME280_temperature;BME280_humidity;BME280_pressure;Samples;Min_cycle;Max_cycle;Signal;HPM_P1;HPM_P2
2024/03/07 00:02:13;;;;;;;56.03;25.10;;;4.70;99.90;;;;;;4993540;28;20034;-57
2024/03/07 00:04:39;;;;;;;51.13;24.35;;;4.70;99.90;;;;;;4982701;28;20086;-56
2024/03/07 00:07:07;;;;;;;56.88;25.67;;;4.60;99.90;;;;;;5007494;23;20046;-54
2024/03/07 00:09:33;;;;;;;55.25;25.23;;;4.60;99.90;;;;;;5010533;28;20077;-54
2024/03/07 00:11:59;;;;;;;51.47;22.15;;;4.60;99.90;;;;;;5012700;28;20066;-54
2024/03/07 00:14:28;;;;;;;53.72;24.73;;;4.60;99.90;;;;;;5010134;28;20116;-51
2024/03/07 00:16:57;;;;;;;49.42;22.23;;;4.50;99.90;;;;;;5012492;28;20026;-51
2024/03/07 00:19:26;;;;;;;61.25;25.73;;;4.50;99.90;;;;;;5002820;28;20399;-54
2024/03/07 00:22:01;;;;;;;54.20;25.63;;;4.40;99.90;;;;;;5005402;28;20030;-50
2024/03/07 00:24:29;;;;;;;58.25;25.30;;;4.40;99.90;;;;;;5006096;28;20033;-51
2024/03/07 00:26:56;;;;;;;59.60;26.67;;;4.30;99.90;;;;;;5007377;28;20105;-51
2024/03/07 00:29:22;;;;;;;51.72;25.00;;;4.30;99.90;;;;;;5003498;28;20050;-51
2024/03/07 00:31:49;;;;;;;62.70;26.30;;;4.30;99.90;;;;;;5005962;28;20058;-52
2024/03/07 00:34:19;;;;;;;56.10;23.13;;;4.20;99.90;;;;;;5003013;28;20612;-51
2024/03/07 00:36:46;;;;;;;53.25;25.50;;;4.20;99.90;;;;;;5003630;28;20119;-51
2024/03/07 00:39:12;;;;;;;57.40;25.35;;;4.20;99.90;;;;;;5008317;28;20046;-54
2024/03/07 00:41:41;;;;;;;58.92;25.38;;;4.20;99.90;;;;;;5003184;28;20033;-51
2024/03/07 00:44:08;;;;;;;60.05;24.98;;;4.20;99.90;;;;;;5001539;28;20041;-55
2024/03/07 00:46:35;;;;;;;59.70;25.52;;;4.10;99.90;;;;;;5001230;28;20113;-52
2024/03/07 00:49:01;;;;;;;58.65;26.20;;;4.10;99.90;;;;;;5004051;28;20022;-53
2024/03/07 00:51:27;;;;;;;60.85;25.73;;;4.10;99.90;;;;;;5004525;28;20032;-51
2024/03/07 00:53:52;;;;;;;56.45;24.83;;;4.10;99.90;;;;;;5005883;28;20113;-55
2024/03/07 00:56:18;;;;;;;59.58;27.02;;;4.10;99.90;;;;;;5002898;28;20107;-54
2024/03/07 00:58:44;;;;;;;62.05;28.08;;;4.10;99.90;;;;;;5004474;28;20026;-52
2024/03/07 01:01:11;;;;;;;61.38;26.05;;;4.10;99.90;;;;;;5010190;28;20476;-51
2024/03/07 01:03:37;;;;;;;64.30;25.45;;;4.10;99.90;;;;;;5004547;28;20494;-52
2024/03/07 01:06:03;;;;;;;55.10;25.27;;;4.00;99.90;;;;;;5004273;28;20028;-53
2024/03/07 01:08:32;;;;;;;52.20;24.20;;;4.00;99.90;;;;;;5003732;28;20076;-51
2024/03/07 01:10:58;;;;;;;60.38;26.67;;;4.00;99.90;;;;;;5000624;28;20076;-54
2024/03/07 01:13:23;;;;;;;53.13;24.48;;;3.90;99.90;;;;;;5003240;28;20030;-54
2024/03/07 01:15:49;;;;;;;60.08;24.42;;;3.90;99.90;;;;;;5006933;28;20029;-51
2024/03/07 01:18:16;;;;;;;57.03;24.75;;;3.80;99.90;;;;;;5003778;28;20033;-51
2024/03/07 01:20:42;;;;;;;58.28;24.35;;;3.80;99.90;;;;;;5001661;28;20030;-52
2024/03/07 01:23:08;;;;;;;57.85;26.30;;;3.70;99.90;;;;;;5003615;28;20022;-52
2024/03/07 01:25:34;;;;;;;54.38;25.42;;;3.70;99.90;;;;;;5003877;28;20507;-51
2024/03/07 01:28:00;;;;;;;59.20;26.00;;;3.70;99.90;;;;;;5005356;28;20542;-51
2024/03/07 01:30:28;;;;;;;54.30;25.05;;;3.60;99.90;;;;;;4999951;28;20037;-51
2024/03/07 01:32:54;;;;;;;60.75;24.17;;;3.60;99.90;;;;;;5000471;28;20060;-51
2024/03/07 01:35:20;;;;;;;62.08;23.88;;;3.60;99.90;;;;;;5002477;28;20032;-51
2024/03/07 01:37:45;;;;;;;49.83;21.65;;;3.60;99.90;;;;;;5001245;28;20026;-52
2024/03/07 01:40:11;;;;;;;56.85;24.35;;;3.50;99.90;;;;;;5003478;28;20519;-53
2024/03/07 01:42:37;;;;;;;57.28;25.25;;;3.50;99.90;;;;;;4984311;28;20049;-51
2024/03/07 01:45:03;;;;;;;56.38;25.33;;;3.50;99.90;;;;;;5006575;28;20030;-55
2024/03/07 01:47:29;;;;;;;61.60;25.10;;;3.40;99.90;;;;;;5006028;28;20030;-51
2024/03/07 01:49:54;;;;;;;57.60;24.77;;;3.30;99.90;;;;;;5000362;28;20073;-50
2024/03/07 01:52:22;;;;;;;59.13;23.95;;;3.30;99.90;;;;;;4997273;28;20034;-55
2024/03/07 01:54:48;;;;;;;65.43;25.73;;;3.30;99.90;;;;;;4999747;28;20585;-55
2024/03/07 01:57:16;;;;;;;56.70;23.13;;;3.30;99.90;;;;;;5004791;28;20025;-53
2024/03/07 01:59:43;;;;;;;51.88;24.05;;;3.20;99.90;;;;;;4999806;28;20384;-52
2024/03/07 02:02:08;;;;;;;53.65;22.30;;;3.20;99.90;;;;;;5004043;28;20489;-52
2024/03/07 02:04:34;;;;;;;55.25;23.73;;;3.10;99.90;;;;;;5010832;28;20108;-52
2024/03/07 02:06:59;;;;;;;51.55;23.27;;;3.10;99.90;;;;;;5002657;28;20171;-55
2024/03/07 02:09:25;;;;;;;56.83;23.80;;;3.10;99.90;;;;;;5002697;28;20030;-52
2024/03/07 02:11:51;;;;;;;60.08;23.67;;;3.10;99.90;;;;;;5002784;28;20023;-51
2024/03/07 02:14:16;;;;;;;55.63;21.60;;;3.20;99.90;;;;;;5002456;28;20026;-52
2024/03/07 02:16:43;;;;;;;51.78;22.75;;;3.30;99.90;;;;;;5000983;28;20056;-51
2024/03/07 02:19:15;;;;;;;57.95;22.90;;;3.30;99.90;;;;;;5003675;28;20096;-54
2024/03/07 02:21:40;;;;;;;54.97;24.48;;;3.30;99.90;;;;;;5008518;28;20025;-52
2024/03/07 02:24:06;;;;;;;50.42;23.33;;;3.30;99.90;;;;;;5003328;28;20077;-52
2024/03/07 02:26:32;;;;;;;51.60;23.13;;;3.30;99.90;;;;;;5006677;28;20029;-52
2024/03/07 02:28:57;;;;;;;52.42;22.92;;;3.30;99.90;;;;;;5005393;28;20030;-53
2024/03/07 02:31:34;;;;;;;48.05;22.05;;;3.20;99.90;;;;;;5005837;28;20033;-53
2024/03/07 02:34:01;;;;;;;52.75;24.20;;;3.20;99.90;;;;;;5004157;28;20026;-52
2024/03/07 02:36:27;;;;;;;52.45;22.88;;;3.10;99.90;;;;;;5012572;28;20117;-52
2024/03/07 02:38:53;;;;;;;53.85;21.80;;;2.90;99.90;;;;;;5006189;28;20101;-52
2024/03/07 02:41:18;;;;;;;48.20;21.80;;;2.80;99.90;;;;;;5009753;28;20782;-52
2024/03/07 02:43:44;;;;;;;50.13;22.45;;;2.70;99.90;;;;;;5002017;28;20106;-52
2024/03/07 02:46:11;;;;;;;49.55;22.95;;;2.60;99.90;;;;;;5006228;28;20058;-55
2024/03/07 02:48:38;;;;;;;48.33;20.70;;;2.50;99.90;;;;;;5008710;28;20029;-51
2024/03/07 02:51:05;;;;;;;51.00;20.88;;;2.50;99.90;;;;;;5005311;28;20439;-55
2024/03/07 02:53:32;;;;;;;52.30;21.42;;;2.40;99.90;;;;;;5007170;28;20030;-51
2024/03/07 02:55:58;;;;;;;51.22;20.95;;;2.40;99.90;;;;;;5000700;28;20019;-51
2024/03/07 02:58:24;;;;;;;53.35;22.63;;;2.40;99.90;;;;;;5000894;28;20033;-52
2024/03/07 03:01:05;;;;;;;49.63;21.75;;;2.30;99.90;;;;;;5002136;28;20058;-51
2024/03/07 03:03:31;;;;;;;48.83;21.02;;;2.40;99.90;;;;;;5002490;28;20056;-53
2024/03/07 03:05:57;;;;;;;50.97;21.02;;;2.40;99.90;;;;;;5002009;28;20042;-52
2024/03/07 03:08:23;;;;;;;50.28;23.15;;;2.50;99.90;;;;;;4999491;28;20053;-52
2024/03/07 03:10:51;;;;;;;52.00;22.10;;;2.40;99.90;;;;;;4996578;28;20408;-52
2024/03/07 03:13:16;;;;;;;46.15;22.88;;;2.40;99.90;;;;;;4999310;28;20640;-51
2024/03/07 03:15:42;;;;;;;51.08;21.95;;;2.40;99.90;;;;;;5000614;28;20037;-54
2024/03/07 03:18:09;;;;;;;50.53;21.65;;;2.50;99.90;;;;;;4999476;28;20033;-53
2024/03/07 03:20:38;;;;;;;49.35;20.83;;;2.50;99.90;;;;;;4995922;28;20408;-53
2024/03/07 03:23:05;;;;;;;51.88;22.92;;;2.40;99.90;;;;;;4995221;28;20034;-53
2024/03/07 03:25:34;;;;;;;50.72;21.95;;;2.50;99.90;;;;;;4996367;28;20018;-51
2024/03/07 03:28:01;;;;;;;56.42;22.63;;;2.50;99.90;;;;;;4985566;28;20046;-52
2024/03/07 03:30:26;;;;;;;49.08;21.98;;;2.50;99.90;;;;;;5001621;28;20030;-51
2024/03/07 03:32:52;;;;;;;53.33;22.10;;;2.50;99.90;;;;;;4997956;28;20045;-52
2024/03/07 03:35:18;;;;;;;52.72;22.77;;;2.50;99.90;;;;;;4999011;28;20038;-54
2024/03/07 03:37:44;;;;;;;52.28;21.92;;;2.60;99.90;;;;;;5004714;28;20025;-51
2024/03/07 03:40:10;;;;;;;56.25;24.30;;;2.60;99.90;;;;;;5005746;28;20492;-53
2024/03/07 03:42:40;;;;;;;48.40;21.08;;;2.60;99.90;;;;;;4999427;28;20128;-51
2024/03/07 03:45:07;;;;;;;56.65;23.40;;;2.50;99.90;;;;;;5006420;28;20029;-52
2024/03/07 03:47:37;;;;;;;52.75;23.83;;;2.50;99.90;;;;;;5003764;28;20483;-55
2024/03/07 03:50:08;;;;;;;53.15;21.77;;;2.40;99.90;;;;;;5006527;28;20030;-51
2024/03/07 03:52:37;;;;;;;46.97;20.35;;;2.30;99.90;;;;;;5006965;28;20442;-55
2024/03/07 03:55:06;;;;;;;50.03;21.02;;;2.20;99.90;;;;;;5004811;28;20109;-54
2024/03/07 03:57:34;;;;;;;49.15;23.25;;;2.20;99.90;;;;;;5004831;28;20034;-52
2024/03/07 03:59:59;;;;;;;55.80;22.17;;;2.20;99.90;;;;;;5010000;28;20037;-52
2024/03/07 04:02:25;;;;;;;48.88;20.92;;;2.20;99.90;;;;;;5012384;28;20037;-52
2024/03/07 04:04:52;;;;;;;46.45;21.52;;;2.20;99.90;;;;;;4993247;28;20084;-51
2024/03/07 04:07:18;;;;;;;52.20;21.02;;;2.20;99.90;;;;;;5002485;28;20018;-52
2024/03/07 04:09:47;;;;;;;56.83;22.15;;;2.10;99.90;;;;;;5007287;28;20102;-52
2024/03/07 04:12:13;;;;;;;48.78;20.67;;;2.10;99.90;;;;;;5008528;28;20464;-54
2024/03/07 04:14:42;;;;;;;52.60;22.13;;;2.00;99.90;;;;;;5012944;28;20041;-54
2024/03/07 04:17:09;;;;;;;52.90;22.73;;;2.00;99.90;;;;;;5006919;28;20032;-52
2024/03/07 04:19:36;;;;;;;58.53;21.90;;;2.00;99.90;;;;;;5010739;28;20034;-54
2024/03/07 04:22:03;;;;;;;56.83;23.33;;;2.10;99.90;;;;;;5010004;28;20026;-51
2024/03/07 04:24:35;;;;;;;52.63;22.25;;;2.10;99.90;;;;;;5008146;28;20033;-54
2024/03/07 04:27:03;;;;;;;50.25;20.88;;;2.10;99.90;;;;;;5008531;28;20391;-52
2024/03/07 04:29:30;;;;;;;50.00;20.73;;;2.10;99.90;;;;;;5008598;28;20542;-52
2024/03/07 04:31:55;;;;;;;51.50;22.73;;;2.20;99.90;;;;;;5006353;28;20035;-52
2024/03/07 04:34:21;;;;;;;62.42;23.02;;;2.20;99.90;;;;;;5009847;28;20116;-54
2024/03/07 04:36:47;;;;;;;53.72;22.52;;;2.20;99.90;;;;;;5003680;28;20053;-54
2024/03/07 04:39:24;;;;;;;56.67;24.38;;;2.20;99.90;;;;;;5002873;28;20022;-51
2024/03/07 04:41:51;;;;;;;54.40;23.13;;;2.20;99.90;;;;;;5002216;28;20034;-52
2024/03/07 04:44:16;;;;;;;51.40;23.05;;;2.20;99.90;;;;;;5006050;28;20018;-51
2024/03/07 04:46:42;;;;;;;52.38;22.58;;;2.20;99.90;;;;;;5008034;28;20407;-54
2024/03/07 04:49:09;;;;;;;53.45;21.75;;;2.20;99.90;;;;;;5004129;28;20450;-51
2024/03/07 04:51:34;;;;;;;54.60;22.48;;;2.10;99.90;;;;;;5006157;28;20049;-52
2024/03/07 04:54:00;;;;;;;63.47;23.48;;;2.20;99.90;;;;;;5002484;28;20038;-52
2024/03/07 04:56:26;;;;;;;57.22;21.27;;;2.10;99.90;;;;;;5000944;28;20033;-52
2024/03/07 04:58:52;;;;;;;50.53;21.05;;;2.10;99.90;;;;;;5006876;28;20031;-53
2024/03/07 05:01:18;;;;;;;54.47;23.58;;;2.10;99.90;;;;;;5002843;28;20065;-55
2024/03/07 05:03:43;;;;;;;53.58;21.73;;;2.00;99.90;;;;;;5006305;28;20054;-55
2024/03/07 05:06:09;;;;;;;45.85;20.52;;;2.00;99.90;;;;;;5005581;28;20030;-51
2024/03/07 05:08:34;;;;;;;47.08;21.77;;;2.00;99.90;;;;;;5001726;28;20034;-54
2024/03/07 05:11:00;;;;;;;47.22;20.52;;;1.90;99.90;;;;;;5002586;28;20069;-53
2024/03/07 05:13:26;;;;;;;54.88;21.65;;;1.90;99.90;;;;;;5004980;28;20034;-50
2024/03/07 05:15:52;;;;;;;55.22;22.38;;;1.80;99.90;;;;;;5004908;28;20399;-52
2024/03/07 05:18:18;;;;;;;53.15;22.50;;;1.80;99.90;;;;;;5001245;28;20033;-52
2024/03/07 05:20:44;;;;;;;50.58;21.88;;;1.80;99.90;;;;;;5002834;28;20040;-51
2024/03/07 05:23:10;;;;;;;57.92;22.13;;;1.80;99.90;;;;;;5001290;28;20061;-52
2024/03/07 05:25:36;;;;;;;52.10;20.80;;;1.80;99.90;;;;;;5004288;28;20089;-52
2024/03/07 05:28:02;;;;;;;47.90;20.63;;;1.80;99.90;;;;;;4998717;28;20030;-52
2024/03/07 05:30:28;;;;;;;64.20;23.63;;;1.70;99.90;;;;;;5001629;28;20040;-52
2024/03/07 05:32:54;;;;;;;52.33;21.15;;;1.70;99.90;;;;;;4998508;28;20076;-55
2024/03/07 05:35:20;;;;;;;53.75;21.65;;;1.70;99.90;;;;;;5002740;28;20026;-53
2024/03/07 05:37:47;;;;;;;49.85;22.13;;;1.70;99.90;;;;;;4998150;28;20068;-54
2024/03/07 05:40:13;;;;;;;47.10;21.13;;;1.70;99.90;;;;;;5001274;28;20407;-54
2024/03/07 05:42:38;;;;;;;49.28;20.27;;;1.70;99.90;;;;;;5003240;28;20040;-53
2024/03/07 05:45:07;;;;;;;51.67;20.58;;;1.60;99.90;;;;;;5000233;28;20427;-52
2024/03/07 05:47:33;;;;;;;53.75;21.13;;;1.60;99.90;;;;;;5002275;28;20037;-53
2024/03/07 05:49:59;;;;;;;50.05;22.40;;;1.60;99.90;;;;;;5003202;28;20113;-51
2024/03/07 05:52:25;;;;;;;53.42;22.08;;;1.60;99.90;;;;;;5004840;28;20445;-54
2024/03/07 05:54:50;;;;;;;47.33;21.55;;;1.50;99.90;;;;;;5002205;28;20407;-53
2024/03/07 05:57:16;;;;;;;49.88;20.70;;;1.50;99.90;;;;;;5005532;28;20044;-51
2024/03/07 05:59:41;;;;;;;57.55;22.50;;;1.50;99.90;;;;;;5005868;28;20113;-53
2024/03/07 06:02:07;;;;;;;48.65;22.20;;;1.50;99.90;;;;;;5002022;28;20029;-55
2024/03/07 06:04:34;;;;;;;51.85;21.95;;;1.50;99.90;;;;;;5004136;28;20021;-52
2024/03/07 06:06:59;;;;;;;63.15;22.85;;;1.50;99.90;;;;;;5003772;28;20101;-54
2024/03/07 06:09:26;;;;;;;46.75;20.67;;;1.60;99.90;;;;;;5001852;28;20105;-54
2024/03/07 06:11:52;;;;;;;58.22;21.45;;;1.60;99.90;;;;;;5004895;28;20525;-53
2024/03/07 06:14:17;;;;;;;56.28;22.05;;;1.70;99.90;;;;;;5001960;28;20116;-51
2024/03/07 06:16:44;;;;;;;50.35;21.52;;;1.70;99.90;;;;;;5001111;28;20691;-53
2024/03/07 06:19:09;;;;;;;53.67;21.05;;;1.80;99.90;;;;;;5007480;28;20033;-53
2024/03/07 06:21:39;;;;;;;44.92;20.85;;;1.90;99.90;;;;;;5000631;28;20038;-51
2024/03/07 06:24:07;;;;;;;49.92;21.90;;;1.90;99.90;;;;;;4996199;28;20034;-52
2024/03/07 06:26:37;;;;;;;58.97;23.48;;;2.00;99.90;;;;;;4998478;28;20068;-52
2024/03/07 06:29:06;;;;;;;47.72;21.80;;;2.00;99.90;;;;;;4997083;28;20085;-55
2024/03/07 06:31:32;;;;;;;47.08;21.70;;;2.00;99.90;;;;;;4997956;28;20088;-53
2024/03/07 06:33:58;;;;;;;48.45;20.98;;;2.10;99.90;;;;;;4997918;28;20038;-52
2024/03/07 06:36:25;;;;;;;49.45;20.73;;;2.10;99.90;;;;;;4997972;28;20526;-53
2024/03/07 06:38:51;;;;;;;43.55;20.20;;;2.10;99.90;;;;;;4996214;28;20135;-51
2024/03/07 06:41:16;;;;;;;44.88;19.92;;;2.10;99.90;;;;;;4997691;28;21227;-53
2024/03/07 06:43:44;;;;;;;51.72;20.45;;;2.20;99.90;;;;;;4997978;28;20029;-55
2024/03/07 06:46:10;;;;;;;51.00;20.10;;;2.20;99.90;;;;;;4996948;28;20057;-53
2024/03/07 06:48:35;;;;;;;47.58;21.35;;;2.20;99.90;;;;;;4996447;28;20425;-51
2024/03/07 06:51:01;;;;;;;46.45;18.65;;;2.30;99.90;;;;;;4999414;28;20105;-53
2024/03/07 06:53:28;;;;;;;40.42;19.90;;;2.30;99.90;;;;;;4997542;28;20439;-55
2024/03/07 06:55:55;;;;;;;46.58;21.40;;;2.40;99.90;;;;;;4997897;28;21279;-51
2024/03/07 06:58:20;;;;;;;40.28;20.63;;;2.50;99.90;;;;;;4997792;28;20104;-52
2024/03/07 07:00:46;;;;;;;41.88;19.33;;;2.50;99.90;;;;;;4995156;28;20442;-54
2024/03/07 07:03:14;;;;;;;41.40;19.83;;;2.60;99.90;;;;;;4994622;28;20046;-52
2024/03/07 07:05:40;;;;;;;44.65;20.48;;;2.70;99.90;;;;;;4999804;28;20109;-54
2024/03/07 07:08:06;;;;;;;36.55;17.65;;;2.80;99.90;;;;;;5000981;28;20116;-52
2024/03/07 07:10:32;;;;;;;40.90;19.00;;;2.80;99.90;;;;;;4999967;28;20623;-53
2024/03/07 07:12:58;;;;;;;35.85;18.38;;;2.90;99.90;;;;;;4999732;28;20026;-51
2024/03/07 07:15:23;;;;;;;35.50;18.67;;;3.10;99.90;;;;;;4999389;28;20033;-53
2024/03/07 07:17:49;;;;;;;36.30;17.17;;;3.30;99.90;;;;;;5001453;28;20065;-54
2024/03/07 07:20:18;;;;;;;33.42;17.02;;;3.50;99.90;;;;;;5000431;28;20034;-52
2024/03/07 07:22:46;;;;;;;41.17;18.98;;;3.70;99.90;;;;;;5000329;28;20472;-55
2024/03/07 07:25:15;;;;;;;35.40;16.60;;;3.70;99.90;;;;;;4999426;28;20444;-55
2024/03/07 07:27:46;;;;;;;34.58;16.30;;;3.80;99.90;;;;;;4999470;28;20026;-55
2024/03/07 07:30:13;;;;;;;42.53;18.25;;;3.80;99.90;;;;;;4999522;28;20034;-55
2024/03/07 07:32:41;;;;;;;31.05;17.17;;;3.90;99.90;;;;;;5000936;28;20463;-54
2024/03/07 07:35:11;;;;;;;35.05;17.27;;;4.00;99.90;;;;;;5000931;28;20029;-52
2024/03/07 07:37:44;;;;;;;39.53;16.90;;;4.00;99.90;;;;;;4998981;28;20036;-54
2024/03/07 07:40:22;;;;;;;35.50;16.80;;;4.20;99.90;;;;;;5001832;28;20030;-52
2024/03/07 07:42:51;;;;;;;35.35;16.55;;;4.30;99.90;;;;;;4993066;28;20037;-55
2024/03/07 07:45:17;;;;;;;34.38;16.75;;;4.40;99.90;;;;;;5001656;28;20037;-54
2024/03/07 07:47:48;;;;;;;29.17;16.27;;;4.50;99.90;;;;;;4998949;28;20034;-52
2024/03/07 07:50:17;;;;;;;30.83;15.73;;;4.60;99.90;;;;;;4998441;28;20041;-53
2024/03/07 07:52:51;;;;;;;30.98;15.63;;;4.70;99.90;;;;;;5000476;28;20037;-55
2024/03/07 07:55:17;;;;;;;;;;;4.70;99.90;;;;;;5001952;28;20035;-55
2024/03/07 07:57:47;;;;;;;27.42;14.48;;;4.80;99.90;;;;;;5000420;28;19953;-53
2024/03/07 08:00:23;;;;;;;31.75;16.00;;;4.90;99.90;;;;;;5000195;28;20045;-53
2024/03/07 08:02:54;;;;;;;35.03;15.20;;;4.90;99.90;;;;;;4999445;28;20100;-54
2024/03/07 08:05:22;;;;;;;34.55;16.90;;;4.90;99.90;;;;;;5001807;28;20031;-52
2024/03/07 08:07:51;;;;;;;32.03;16.08;;;5.10;99.90;;;;;;4999405;28;20065;-55
2024/03/07 08:10:19;;;;;;;31.63;15.23;;;5.10;99.90;;;;;;5000077;28;20030;-52
2024/03/07 08:12:44;;;;;;;33.30;16.48;;;5.20;99.90;;;;;;4998966;28;20033;-55
2024/03/07 08:15:13;;;;;;;26.60;14.70;;;5.30;99.90;;;;;;4999169;28;20515;-55
2024/03/07 08:17:43;;;;;;;30.92;15.23;;;5.40;99.90;;;;;;4999138;28;20117;-53
2024/03/07 08:20:13;;;;;;;31.42;15.32;;;5.60;99.90;;;;;;4999566;28;20038;-53
2024/03/07 08:22:41;;;;;;;29.25;15.52;;;5.70;99.90;;;;;;4998733;28;20083;-51
2024/03/07 08:25:09;;;;;;;29.33;14.98;;;5.80;99.90;;;;;;4999410;28;20083;-52
2024/03/07 08:27:36;;;;;;;31.92;14.45;;;5.80;99.90;;;;;;5001178;28;20112;-55
2024/03/07 08:30:03;;;;;;;24.27;13.38;;;5.80;99.90;;;;;;5000286;28;20029;-54
2024/03/07 08:32:29;;;;;;;26.35;13.30;;;5.80;99.90;;;;;;5001506;28;20034;-55
2024/03/07 08:34:54;;;;;;;25.23;13.75;;;5.80;99.90;;;;;;5007981;23;20035;-54
2024/03/07 08:37:21;;;;;;;27.10;13.55;;;5.80;99.90;;;;;;4987746;28;20506;-56
2024/03/07 08:39:47;;;;;;;31.83;14.48;;;5.90;99.90;;;;;;5000131;28;20041;-56
2024/03/07 08:42:12;;;;;;;28.58;14.30;;;6.10;99.90;;;;;;4999602;28;20042;-56
2024/03/07 08:44:38;;;;;;;27.13;13.20;;;6.20;99.90;;;;;;5010126;28;20091;-56
2024/03/07 08:47:03;;;;;;;21.45;11.77;;;6.30;99.90;;;;;;5017627;28;20033;-56
2024/03/07 08:49:29;;;;;;;26.40;12.98;;;6.30;99.90;;;;;;5018455;28;20053;-56
2024/03/07 08:51:55;;;;;;;28.13;13.40;;;6.30;99.90;;;;;;5017625;28;20036;-56
2024/03/07 08:54:20;;;;;;;22.42;12.60;;;6.40;99.90;;;;;;5017920;28;20033;-56
2024/03/07 08:56:46;;;;;;;23.10;11.77;;;6.50;99.90;;;;;;5019699;28;20038;-56
2024/03/07 08:59:15;;;;;;;23.15;12.88;;;6.60;99.90;;;;;;5018887;28;20095;-56
2024/03/07 09:01:43;;;;;;;24.92;11.95;;;6.60;99.90;;;;;;5016832;28;20037;-56
2024/03/07 09:04:09;;;;;;;26.38;13.77;;;6.80;99.90;;;;;;5016137;28;20026;-57
2024/03/07 09:06:35;;;;;;;25.60;12.43;;;6.80;99.90;;;;;;5018555;28;20022;-54
2024/03/07 09:09:00;;;;;;;24.80;12.60;;;6.90;99.90;;;;;;5019764;28;20067;-57
2024/03/07 09:11:26;;;;;;;23.90;12.48;;;7.20;99.90;;;;;;5017854;28;20034;-56
2024/03/07 09:13:51;;;;;;;26.33;13.52;;;7.10;99.90;;;;;;5018606;28;20030;-56
2024/03/07 09:16:17;;;;;;;24.75;11.93;;;7.30;99.90;;;;;;5018624;28;20034;-55
2024/03/07 09:18:42;;;;;;;24.33;12.38;;;7.40;99.90;;;;;;5017378;28;20029;-56
2024/03/07 09:21:09;;;;;;;24.40;12.27;;;7.30;99.90;;;;;;5017648;28;20065;-57
2024/03/07 09:23:34;;;;;;;27.27;12.85;;;7.30;99.90;;;;;;5018292;28;20032;-56
2024/03/07 09:26:02;;;;;;;24.83;13.57;;;7.40;99.90;;;;;;5018332;28;20022;-53
2024/03/07 09:28:28;;;;;;;28.70;13.25;;;7.50;99.90;;;;;;5018097;28;20040;-55
2024/03/07 09:30:55;;;;;;;23.83;12.85;;;7.60;99.90;;;;;;5017790;28;20034;-55
2024/03/07 09:33:21;;;;;;;27.05;12.32;;;7.60;99.90;;;;;;5017228;28;20033;-55
2024/03/07 09:35:48;;;;;;;23.10;12.00;;;7.80;99.90;;;;;;5018281;28;20065;-56
2024/03/07 09:38:14;;;;;;;23.17;12.13;;;7.80;99.90;;;;;;5018456;28;20091;-57
2024/03/07 09:40:40;;;;;;;21.90;11.75;;;8.00;99.90;;;;;;5017113;28;20029;-56
2024/03/07 09:43:09;;;;;;;24.13;12.23;;;7.90;99.90;;;;;;5017036;28;20545;-57
2024/03/07 09:45:35;;;;;;;25.25;12.65;;;7.90;99.90;;;;;;5018434;28;20029;-55
2024/03/07 09:48:02;;;;;;;26.05;12.63;;;8.00;99.90;;;;;;5006236;28;20058;-57
2024/03/07 09:50:31;;;;;;;25.10;13.50;;;7.90;99.90;;;;;;5016579;28;20038;-54
2024/03/07 09:52:58;;;;;;;21.67;11.82;;;7.90;99.90;;;;;;5017161;28;20033;-56
2024/03/07 09:55:24;;;;;;;22.40;11.85;;;7.90;99.90;;;;;;5017486;28;20045;-56
2024/03/07 09:57:50;;;;;;;24.50;12.98;;;8.00;99.90;;;;;;5017218;28;20418;-56
2024/03/07 10:00:25;;;;;;;23.67;12.55;;;8.00;99.90;;;;;;5017781;28;20124;-57
2024/03/07 10:02:58;;;;;;;31.63;13.73;;;8.20;99.90;;;;;;5006891;28;20041;-56
2024/03/07 10:05:27;;;;;;;24.73;12.48;;;8.70;99.90;;;;;;5015439;28;20044;-56
2024/03/07 10:07:53;;;;;;;26.13;12.63;;;8.80;99.90;;;;;;5018278;28;20017;-57
2024/03/07 10:10:19;;;;;;;21.67;11.60;;;9.10;99.90;;;;;;5017604;28;20052;-57
2024/03/07 10:12:45;;;;;;;20.67;11.50;;;9.70;99.90;;;;;;5017996;28;20030;-56
2024/03/07 10:15:12;;;;;;;21.05;11.23;;;10.10;99.90;;;;;;5018628;28;20036;-56
2024/03/07 10:17:40;;;;;;;22.25;11.43;;;10.70;99.90;;;;;;5016904;28;20060;-56
2024/03/07 10:20:09;;;;;;;20.95;11.32;;;10.80;99.90;;;;;;5006724;28;20120;-56
2024/03/07 10:22:36;;;;;;;27.45;11.68;;;11.00;99.30;;;;;;5016103;28;20649;-55
2024/03/07 10:25:03;;;;;;;26.88;12.50;;;10.90;99.70;;;;;;5016436;28;20128;-56
2024/03/07 10:27:29;;;;;;;26.90;13.38;;;10.70;99.90;;;;;;5018018;28;20551;-56
2024/03/07 10:29:55;;;;;;;23.52;12.25;;;10.70;99.90;;;;;;5017205;28;20112;-58
2024/03/07 10:32:22;;;;;;;26.42;13.00;;;10.90;99.90;;;;;;5017176;28;20075;-58
2024/03/07 10:34:50;;;;;;;22.10;11.90;;;11.10;99.30;;;;;;5015753;28;20029;-55
2024/03/07 10:37:17;;;;;;;24.08;11.60;;;11.10;99.80;;;;;;5017170;28;20034;-56
2024/03/07 10:39:46;;;;;;;24.20;12.07;;;10.70;99.90;;;;;;5014339;28;20026;-56
2024/03/07 10:42:15;;;;;;;22.42;12.48;;;10.50;99.90;;;;;;5016041;28;20025;-55
2024/03/07 10:44:45;;;;;;;29.10;12.35;;;10.20;99.90;;;;;;5014555;28;20031;-56
2024/03/07 10:47:19;;;;;;;32.10;13.48;;;9.80;99.90;;;;;;5002657;28;20053;-56
2024/03/07 10:50:14;;;;;;;24.13;11.00;;;9.60;99.90;;;;;;5014452;28;20030;-56
2024/03/07 10:52:47;;;;;;;25.17;11.68;;;9.60;99.90;;;;;;5015743;28;20021;-53
2024/03/07 10:55:36;;;;;;;22.75;12.38;;;9.50;99.90;;;;;;5015784;28;20037;-56
2024/03/07 10:58:14;;;;;;;26.35;11.68;;;9.40;99.90;;;;;;5016991;28;20029;-56
2024/03/07 11:00:45;;;;;;;20.08;11.23;;;9.50;99.90;;;;;;5017976;28;20042;-55
2024/03/07 11:03:11;;;;;;;20.52;10.77;;;9.40;99.90;;;;;;5007606;28;20036;-54
2024/03/07 11:05:38;;;;;;;22.67;10.70;;;9.50;99.90;;;;;;5005434;28;20112;-53
2024/03/07 11:08:12;;;;;;;23.08;11.38;;;9.40;99.90;;;;;;5018017;28;20036;-55
2024/03/07 11:10:39;;;;;;;20.67;10.65;;;9.40;99.90;;;;;;5016270;28;20032;-56
2024/03/07 11:13:10;;;;;;;20.10;9.18;;;9.60;99.90;;;;;;5017076;28;20037;-58
2024/03/07 11:15:37;;;;;;;20.52;9.35;;;9.60;99.90;;;;;;5015389;28;20038;-58
2024/03/07 11:18:03;;;;;;;18.00;10.05;;;9.70;99.90;;;;;;5016746;28;20064;-59
2024/03/07 11:20:40;;;;;;;19.48;9.77;;;9.90;99.90;;;;;;5016927;28;20112;-55
2024/03/07 11:23:28;;;;;;;22.88;9.35;;;10.00;99.90;;;;;;5015966;28;20037;-55
2024/03/07 11:25:56;;;;;;;18.80;9.73;;;10.10;99.90;;;;;;5017865;28;20075;-55
2024/03/07 11:28:29;;;;;;;17.13;9.30;;;10.30;99.90;;;;;;5016788;28;20037;-57
2024/03/07 11:30:54;;;;;;;18.13;9.55;;;10.10;99.90;;;;;;5018193;28;20061;-57
2024/03/07 11:33:20;;;;;;;21.63;9.10;;;9.90;99.90;;;;;;5016323;28;20529;-56
2024/03/07 11:35:49;;;;;;;18.88;10.00;;;9.70;99.90;;;;;;5003269;28;20124;-56
2024/03/07 11:38:14;;;;;;;21.33;10.68;;;9.50;99.90;;;;;;5017329;28;20041;-56
2024/03/07 11:40:40;;;;;;;18.05;10.00;;;9.50;99.90;;;;;;5017002;28;20041;-57
2024/03/07 11:43:05;;;;;;;19.52;9.10;;;9.50;99.90;;;;;;5014766;28;20029;-56
2024/03/07 11:45:38;;;;;;;15.85;9.13;;;9.60;99.90;;;;;;5014871;28;20033;-56
2024/03/07 11:48:08;;;;;;;15.68;8.52;;;9.70;99.90;;;;;;4999850;28;20129;-56
2024/03/07 11:50:37;;;;;;;15.65;8.77;;;9.70;99.90;;;;;;5018193;28;20037;-57
2024/03/07 11:53:07;;;;;;;15.80;8.00;;;9.80;99.90;;;;;;5020544;28;20495;-56
2024/03/07 11:55:48;;;;;;;13.45;7.75;;;9.50;99.90;;;;;;5019480;28;20041;-56
2024/03/07 11:58:16;;;;;;;17.83;8.45;;;9.40;99.90;;;;;;5019806;28;20029;-57
2024/03/07 12:00:44;;;;;;;19.67;9.32;;;9.40;99.90;;;;;;5018726;28;20506;-57
2024/03/07 12:03:13;;;;;;;16.90;7.95;;;9.60;99.90;;;;;;5019208;28;20608;-57
2024/03/07 12:05:39;;;;;;;15.45;7.88;;;9.80;99.90;;;;;;5020798;28;20039;-56
2024/03/07 12:08:05;;;;;;;12.73;6.57;;;10.10;99.90;;;;;;5019749;28;20044;-57
2024/03/07 12:10:31;;;;;;;15.73;7.03;;;10.40;99.90;;;;;;5019935;28;20076;-55
2024/03/07 12:12:57;;;;;;;13.45;7.75;;;10.50;99.90;;;;;;5019699;28;20507;-54
2024/03/07 12:15:23;;;;;;;17.98;8.10;;;10.80;99.90;;;;;;5016866;28;20029;-54
2024/03/07 12:17:50;;;;;;;14.00;7.65;;;10.90;99.90;;;;;;5019112;28;20043;-56
2024/03/07 12:20:26;;;;;;;16.80;8.68;;;10.90;99.90;;;;;;5001199;28;21301;-56
2024/03/07 12:22:56;;;;;;;15.98;8.43;;;11.00;99.90;;;;;;5017512;28;20505;-56
2024/03/07 12:25:24;;;;;;;14.88;7.03;;;10.90;99.70;;;;;;5018708;28;20025;-56
2024/03/07 12:28:17;;;;;;;12.88;7.07;;;10.70;99.90;;;;;;5019142;28;20030;-57
2024/03/07 12:30:54;;;;;;;14.18;7.53;;;10.70;99.90;;;;;;5019786;28;20116;-55
2024/03/07 12:33:21;;;;;;;16.35;8.35;;;10.40;99.90;;;;;;5019383;28;20038;-56
2024/03/07 12:35:49;;;;;;;15.80;7.95;;;10.10;99.90;;;;;;5018849;28;20420;-56
2024/03/07 12:38:16;;;;;;;18.48;7.40;;;10.00;99.90;;;;;;5018448;28;20052;-56
2024/03/07 12:40:43;;;;;;;18.13;8.55;;;10.10;99.90;;;;;;5018446;28;20036;-57